Flight Track Log - Related Links

Times and Time Zones

All times are in EDT time to prevent confusion due to time zone crossing. See the SWA850 flight status page for this flight to view local times or setup timezone preferences in your user account.

Time Position Orientation Groundspeed Altitude Reporting Facility
EDT Latitude Longitude Course Direction KTS MPH feet Rate Location/Type
Mon 06:16:52 PM 33.9500 -118.4667 22° Northeast 167 192 1,700  Level Southern California TRACON
Mon 06:17:26 PM 33.9422 -118.4953 252° West 185 213 3,100 2,750 Climbing Los Angeles Center
Mon 06:18:28 PM 33.9381 -118.5731 266° West 228 262 6,100 2,710 Climbing Los Angeles Center
Mon 06:19:30 PM 33.9572 -118.6656 284° West 286 329 8,700 1,403 Climbing Los Angeles Center
Mon 06:20:32 PM 34.0275 -118.7092 333° Northwest 286 329 9,000 97 Climbing Los Angeles Center
Mon 06:21:34 PM 34.1006 -118.6617 28° Northeast 285 328 8,900 968 Descending Los Angeles Center
Mon 06:22:00 PM 34.1596 -118.6202 22° Northeast  Level FlightAware Approximate
Mon 06:22:36 PM 34.1714 -118.6267 22° Northeast 284 327 11,000  Level Los Angeles Center
Mon 06:23:38 PM 34.2528 -118.6153 North 300 345 14,000 2,758 Climbing Los Angeles Center
Mon 06:24:40 PM 34.3367 -118.6281 353° North 303 349 16,700 1,984 Climbing Los Angeles Center
Mon 06:25:42 PM 34.4253 -118.6714 338° Northwest 346 398 18,100 1,403 Climbing Los Angeles Center
Mon 06:26:44 PM 34.5264 -118.7225 337° Northwest 395 455 19,600 1,935 Climbing Los Angeles Center
Mon 06:27:46 PM 34.6558 -118.7867 338° Northwest 419 482 22,100 2,226 Climbing Los Angeles Center
Mon 06:28:48 PM 34.7656 -118.8433 337° Northwest 424 488 24,200 1,839 Climbing Los Angeles Center
Mon 06:29:50 PM 34.8675 -118.9236 327° Northwest 439 505 25,900 1,500 Climbing Los Angeles Center
Mon 06:30:52 PM 34.9728 -119.0261 321° Northwest 446 513 27,300 1,512 Climbing Los Angeles Center
Mon 06:31:53 PM 35.0742 -119.1256 321° Northwest 465 535 29,000 1,317 Climbing Los Angeles Center
Mon 06:32:55 PM 35.1742 -119.2228 322° Northwest 465 535 30,000 484 Climbing Los Angeles Center
Mon 06:33:57 PM 35.2744 -119.3219 321° Northwest 464 534 30,000  Level Los Angeles Center
Mon 06:34:59 PM 35.3744 -119.4211 321° Northwest 466 536 30,000 726 Level Los Angeles Center
Mon 06:36:01 PM 35.4931 -119.5375 321° Northwest 461 531 31,500 968 Climbing Los Angeles Center
Mon 06:37:03 PM 35.5906 -119.6353 321° Northwest 455 524 32,000 278 Climbing Los Angeles Center
Mon 06:37:49 PM 35.6672 -119.7125 321° Northwest 457 526 32,000  Level Oakland Center
Mon 06:38:50 PM 35.7631 -119.8083 321° Northwest 451 519 32,000  Level Oakland Center
Mon 06:39:52 PM 35.8600 -119.9042 321° Northwest 449 517 32,000  Level Oakland Center
Mon 06:40:53 PM 35.9567 -120.0022 321° Northwest 451 519 32,000  Level Oakland Center
Mon 06:41:55 PM 36.0539 -120.1003 321° Northwest 453 521 32,000  Level Oakland Center
Mon 06:42:56 PM 36.1519 -120.1997 321° Northwest 457 526 32,000  Level Oakland Center
Mon 06:43:58 PM 36.2500 -120.3014 320° Northwest 460 529 32,000  Level Oakland Center
Mon 06:44:59 PM 36.3669 -120.4200 321° Northwest 455 524 32,000  Level Oakland Center
Mon 06:46:01 PM 36.4650 -120.5247 319° Northwest 463 533 32,000 -293 Level Oakland Center
Mon 06:47:02 PM 36.5644 -120.6253 321° Northwest 463 533 31,400 -1,854 Descending Oakland Center
Mon 06:48:04 PM 36.6650 -120.7261 321° Northwest 463 533 28,200 -2,829 Descending Oakland Center
Mon 06:49:05 PM 36.7603 -120.8275 320° Northwest 456 525 25,600 -2,488 Descending Oakland Center
Mon 06:50:07 PM 36.8428 -120.9317 315° West 428 493 23,100 -2,390 Descending Oakland Center
Mon 06:51:08 PM 36.9244 -121.0236 318° Northwest 401 461 20,700 -2,537 Descending Oakland Center
Mon 06:52:10 PM 37.0189 -121.1292 318° Northwest 386 444 17,900 -2,390 Descending Oakland Center
Mon 06:53:11 PM 37.0919 -121.2178 316° Northwest 370 426 15,800 -2,049 Descending Oakland Center
Mon 06:54:13 PM 37.1667 -121.3003 319° Northwest 361 415 13,700 -2,098 Descending Oakland Center
Mon 06:55:14 PM 37.2364 -121.3817 317° Northwest 348 400 11,500 -1,707 Descending Oakland Center
Mon 06:56:16 PM 37.3028 -121.4589 317° Northwest 325 374 10,200 -1,463 Descending Oakland Center
Mon 06:57:17 PM 37.3644 -121.5311 317° Northwest 296 341 8,500 -1,610 Descending Oakland Center
Mon 06:58:19 PM 37.4236 -121.5994 317° Northwest 294 338 6,900 -810 Descending Oakland Center
Mon 06:59:23 PM 37.4667 -121.7000 298° West 297 342 6,800 -435 Descending Northern Cal TRACON
Mon 07:00:23 PM 37.5167 -121.8000 302° West 287 330 6,000 -950 Descending Northern Cal TRACON
Mon 07:01:23 PM 37.5500 -121.8833 297° West 281 323 4,900 -1,050 Descending Northern Cal TRACON
Mon 07:02:23 PM 37.5833 -121.9667 297° West 260 299 3,900 -1,200 Descending Northern Cal TRACON
Mon 07:03:23 PM 37.6000 -122.0500 284° West 251 289 2,500 -823 Descending Northern Cal TRACON
Mon 07:04:27 PM 37.6322 -122.1119 303° West 232 267 2,200 -571 Descending Oakland Center
Mon 07:05:29 PM 37.6639 -122.1586 311° West 196 226 1,300 -828 Descending Oakland Center
Mon 07:06:23 PM 37.6833 -122.2000 301° West 125 144 600 -778 Descending Northern Cal TRACON
Mon 07:09:00 PM 37.7167 -122.2167 270° West  Level FlightAware Approximate

Login

Don't have an account? Register now (free) for customized features, flight alerts, and more!